« Back
NWS Peachtree City, Ga » Text Product » CSG Terminal Aerodrome Forecast


Printer-friendly Version
Current Version              Previous Versions:   1  2  3  4  5  6  7  8  9  

Terminal Aerodrome Forecast

452
FTUS42 KFFC 030538
TAFCSG
TAF
KCSG 030538Z 0306/0406 22008KT P6SM BKN010 BKN100
     FM030900 26006KT 3SM BR BKN010
     FM031400 25012KT P6SM BKN025 BKN250
     FM031600 26012G18KT P6SM VCSH SCT050 BKN250 PROB30 0318/0323
      4SM TSRA BKN025CB
     FM040100 27008KT P6SM SCT040 BKN080=



USA.gov is the U.S. government's official web portal to all federal, state and local government web resources and services.